Portada
METAR-TAF:

METAR-TAF

Aeroports :

Kerman, Iran

latitud: 30-15N, longitud: 056-58E, altitud: 1748 m

Observació

L'informe es va fer fa 31 minuts, a les 14:00 UTC
Vent 14 kt del Est/Nord-Est
Temperatura 34°C
Humitat 15%
Pressió 1013 hPa
Visibilitat 10 km o més
sense núvols per sota de 1500 mi sense presència de cumulonimbus.

METAR: OIKK 081400Z 07014KT CAVOK 34/04 Q1012 A2990

Hora: 19:01 (14:31 UTC)

Pronòstic

L'informe es va fer fa 2 hores i 41 minuts, a les 11:50 UTC
Pronòstic vàlid del 08 a les 12 UTC al 09 a les 18 UTC
Vent 8 kt del Est/Nord-Est
Visibilitat: 7000 m
Temporalment
l' 08 a les 12 UTC al 08 a les 15 UTC
Vent 20 kt del Nord-Oest
Visibilitat: 5000 m
sorra
Temporalment
l' 09 a les 09 UTC al 09 a les 15 UTC
Vent 20 kt del Nord-Oest
Visibilitat: 5000 m
sorra

TAF: OIKK 081150Z 0812/0918 06008KT 7000 NSC TEMPO 0812/0815 32020KT 5000 SA TEMPO 0909/0915 32020KT 5000 SA

Observacions i pronòstics meteorològics de més de 4000 aeroports (METAR i TAF).

Les estacions disponibles són els punts grocs i vermells al mapa.

Posi el ratolí al punt desitjat per veure el nom de l'estació.

Feu clic per veure les observacions i els pronòstics meteorològics.

Per canviar el mapa: feu clic els botons verds amb una creu de color negre per apropar; al botó verd amb un guió per allunyar la imatge; o en les fletxes verdes per a mapes adjacents.


METAR-TAF: